ニアメ の空港の天気 - METARとTAF

ニアメ/ディオリ・アマニ国際空港 ( DRRN / NIM ) - ニジェール ニアメ
飛行場実況気象(Metar)
観測時間05/24 23:00 WAT (05/24 22:00 UTC)
風向・風速南南西 6m/s
視程10km以上
天気現象
なし
気温27℃
湿度66%
気圧1013hPa
METARDRRN 242200Z 20012KT CAVOK 27/20 Q1013 NOSIG
過去の天気等 Google飛行場航空写真 Wunderground天気予報

過去48時間のMETAR

飛行場予報(TAF)
発表時間: 5/24 18:00 WAT (5/24 17:00 UTC)
予報対象時間: 24日19時 WAT ~ 26日1時 WAT
風向・風速西 3m/s
視程6000m
全天の4割程度の雲 雲底高度 910m
少しの積乱雲 雲底高度 1220m
24日19時 WAT ~ 24日23時 WAT に一時的に
風向・風速東 10m/s 瞬間風速 18m/s
視程2000m
天気現象高い風塵 雷
25日0時 WAT から
風向・風速南西 5m/s
視程8000m
なし
TAF DRRN 241700Z 2418/2524 28005KT 6000 SCT030 FEW040CB
TEMPO 2418/2422 08020G35KT 2000 BLDU TS
FM242300 22010KT 8000 NSC